createdAt,value
2018-10-03T02:41:48.801Z,11.80
2018-10-03T02:44:17.049Z,11.90
2018-10-03T02:46:45.316Z,11.90
2018-10-03T02:49:13.613Z,11.80
2018-10-03T02:51:41.906Z,11.90
2018-10-03T02:54:10.162Z,11.90
2018-10-03T02:56:38.446Z,11.90
2018-10-03T02:59:06.808Z,11.90
2018-10-03T03:01:35.061Z,11.90
2018-10-03T03:04:03.324Z,11.90
2018-10-03T03:06:31.552Z,11.90
2018-10-03T03:08:59.857Z,11.90
2018-10-03T03:11:28.117Z,11.90
2018-10-03T03:13:56.409Z,11.90
2018-10-03T03:16:24.717Z,12.00
2018-10-03T03:18:52.993Z,11.90
2018-10-03T03:21:21.263Z,12.00
2018-10-03T03:23:49.532Z,11.90
2018-10-03T03:26:17.813Z,11.90
2018-10-03T03:28:46.094Z,12.00
2018-10-03T03:31:14.362Z,12.00
2018-10-03T03:33:42.632Z,12.00
2018-10-03T03:36:10.904Z,12.00
2018-10-03T03:38:39.185Z,12.10
2018-10-03T03:41:07.526Z,12.00
2018-10-03T03:43:35.803Z,12.10
2018-10-03T03:46:04.056Z,12.10
2018-10-03T03:48:32.336Z,12.10
2018-10-03T03:51:00.627Z,12.20
2018-10-03T03:53:28.896Z,12.20
2018-10-03T03:55:57.187Z,12.10
2018-10-03T03:58:25.469Z,12.10
2018-10-03T04:00:53.748Z,12.00
2018-10-03T04:03:22.045Z,12.00
2018-10-03T04:05:50.327Z,12.00
2018-10-03T04:08:18.624Z,12.00
2018-10-03T04:10:47.729Z,12.00
2018-10-03T04:13:16.027Z,11.90
2018-10-03T04:15:44.409Z,11.90
2018-10-03T04:18:12.696Z,11.90
2018-10-03T04:20:40.988Z,11.80
2018-10-03T04:23:09.281Z,11.80
2018-10-03T04:25:37.553Z,11.80
2018-10-03T04:28:05.864Z,11.80
2018-10-03T04:30:34.137Z,11.80
2018-10-03T04:33:02.421Z,11.70
2018-10-03T04:35:30.705Z,11.80
2018-10-03T04:37:58.972Z,11.70
2018-10-03T04:40:27.228Z,11.70
2018-10-03T04:42:55.524Z,11.70
2018-10-03T04:45:23.802Z,11.70
2018-10-03T04:47:52.064Z,11.70
2018-10-03T04:50:20.349Z,11.60
2018-10-03T04:52:48.666Z,11.60
2018-10-03T04:55:16.944Z,11.50
2018-10-03T04:57:45.192Z,11.50
2018-10-03T05:00:13.473Z,11.60
2018-10-03T05:02:41.760Z,11.50
2018-10-03T05:05:10.049Z,11.50
2018-10-03T05:07:38.290Z,11.60
2018-10-03T05:10:06.651Z,11.60
2018-10-03T05:12:34.948Z,11.60
2018-10-03T05:15:03.253Z,11.60
2018-10-03T05:17:31.556Z,11.60
2018-10-03T05:19:59.862Z,11.60
2018-10-03T05:22:28.177Z,11.70
2018-10-03T05:24:56.446Z,11.70
2018-10-03T05:27:24.698Z,11.80
2018-10-03T05:29:52.967Z,11.80
2018-10-03T05:32:21.230Z,11.80
2018-10-03T05:34:49.509Z,11.70
2018-10-03T05:37:17.775Z,11.70
2018-10-03T05:39:46.118Z,11.80
2018-10-03T05:42:14.378Z,11.80
2018-10-03T05:44:42.630Z,11.80
2018-10-03T05:47:10.892Z,11.70
2018-10-03T05:49:39.188Z,11.70
2018-10-03T05:52:07.594Z,11.60
2018-10-03T05:54:35.913Z,11.70
2018-10-03T05:57:04.150Z,11.70
2018-10-03T05:59:32.441Z,11.70
2018-10-03T06:02:00.735Z,11.70
2018-10-03T06:04:29.040Z,11.70
2018-10-03T06:06:57.349Z,11.70
2018-10-03T06:09:25.638Z,11.70
2018-10-03T06:11:53.930Z,11.70
2018-10-03T06:14:22.221Z,11.60
2018-10-03T06:16:50.487Z,11.60
2018-10-03T06:19:18.749Z,11.60
2018-10-03T06:21:47.049Z,11.70
2018-10-03T06:24:15.357Z,11.60
2018-10-03T06:26:43.612Z,11.70
2018-10-03T06:29:11.921Z,11.70
2018-10-03T06:31:40.198Z,11.80
2018-10-03T06:34:08.536Z,11.80
2018-10-03T06:36:36.824Z,11.90
2018-10-03T06:39:07.313Z,11.90
2018-10-03T06:41:35.922Z,12.00
2018-10-03T06:44:04.191Z,12.10
2018-10-03T06:46:32.516Z,12.20
2018-10-03T06:49:00.815Z,12.30
2018-10-03T06:51:29.085Z,12.30
2018-10-03T06:53:57.609Z,12.30
2018-10-03T06:56:25.921Z,12.40
2018-10-03T06:58:54.260Z,12.30
2018-10-03T07:01:22.610Z,12.30
2018-10-03T07:03:50.880Z,12.40
2018-10-03T07:06:19.182Z,12.40
2018-10-03T07:08:47.474Z,12.40
2018-10-03T07:11:15.737Z,12.50
2018-10-03T07:13:44.025Z,12.60
2018-10-03T07:16:12.389Z,12.60
2018-10-03T07:18:40.657Z,12.70
2018-10-03T07:21:08.929Z,12.70
2018-10-03T07:23:37.416Z,12.70
2018-10-03T07:26:05.730Z,12.60
2018-10-03T07:28:34.060Z,12.70
2018-10-03T07:31:02.344Z,12.70
2018-10-03T07:33:30.641Z,12.70
2018-10-03T07:35:59.027Z,12.90
2018-10-03T07:38:27.305Z,13.00
2018-10-03T07:40:56.305Z,13.00
2018-10-03T07:43:24.798Z,12.90
2018-10-03T07:45:53.289Z,12.90
2018-10-03T07:48:21.609Z,13.10
2018-10-03T07:50:49.957Z,13.20
2018-10-03T07:53:18.234Z,13.20
2018-10-03T07:55:46.529Z,13.20
2018-10-03T07:58:14.813Z,13.20
2018-10-03T08:00:43.073Z,13.20
2018-10-03T08:03:13.108Z,13.20
2018-10-03T08:05:41.420Z,13.20
2018-10-03T08:08:09.825Z,13.20
2018-10-03T08:10:38.988Z,13.30
2018-10-03T08:13:07.397Z,13.40
2018-10-03T08:15:35.705Z,13.40
2018-10-03T08:18:03.973Z,13.50
2018-10-03T08:20:32.267Z,13.60
2018-10-03T08:23:00.645Z,13.60
2018-10-03T08:25:28.929Z,13.60
2018-10-03T08:27:57.173Z,13.70
2018-10-03T08:30:25.612Z,13.80
2018-10-03T08:32:54.020Z,13.90
2018-10-03T08:35:22.159Z,14.00
2018-10-03T08:37:50.424Z,14.10
2018-10-03T08:40:18.684Z,14.20
2018-10-03T08:42:47.005Z,14.20
2018-10-03T08:45:15.300Z,14.20
2018-10-03T08:47:43.596Z,14.20
2018-10-03T08:50:12.758Z,14.20
2018-10-03T08:52:41.018Z,14.20
2018-10-03T08:55:09.428Z,14.20
2018-10-03T08:57:38.872Z,14.30
2018-10-03T09:00:07.902Z,14.30
2018-10-03T09:02:36.165Z,14.30
2018-10-03T09:05:04.556Z,14.40
2018-10-03T09:07:32.817Z,14.30
2018-10-03T09:10:01.089Z,14.30
2018-10-03T09:12:29.341Z,14.20
2018-10-03T09:14:57.669Z,14.20
2018-10-03T09:17:25.963Z,14.10
2018-10-03T09:19:54.228Z,14.10
2018-10-03T09:22:22.696Z,14.20
2018-10-03T09:24:51.175Z,14.20
2018-10-03T09:27:19.413Z,14.30
2018-10-03T09:29:47.736Z,14.40
2018-10-03T09:32:15.996Z,14.50
2018-10-03T09:34:44.265Z,14.60
2018-10-03T09:37:12.544Z,14.70
2018-10-03T09:39:40.892Z,14.90
2018-10-03T09:42:09.241Z,14.90
2018-10-03T09:44:37.537Z,14.80
2018-10-03T09:47:06.113Z,14.80
2018-10-03T09:49:34.393Z,14.80
2018-10-03T09:52:02.644Z,14.90
2018-10-03T09:54:30.916Z,15.10
2018-10-03T09:56:59.207Z,15.30
2018-10-03T09:59:27.465Z,15.30
2018-10-03T10:01:55.765Z,15.40
2018-10-03T10:04:24.117Z,15.50
2018-10-03T10:06:52.378Z,15.60
2018-10-03T10:09:20.669Z,15.60
2018-10-03T10:11:49.150Z,15.50
2018-10-03T10:14:17.305Z,15.30
2018-10-03T10:16:45.617Z,15.30
2018-10-03T10:19:13.889Z,15.40
2018-10-03T10:21:42.172Z,15.30
2018-10-03T10:24:10.552Z,15.50
2018-10-03T10:26:38.820Z,15.50
2018-10-03T10:29:07.135Z,15.60
2018-10-03T10:31:35.520Z,15.70
2018-10-03T10:34:03.847Z,15.70
2018-10-03T10:36:32.129Z,15.80
2018-10-03T10:39:00.413Z,15.90
2018-10-03T10:41:28.956Z,15.90
2018-10-03T10:43:57.097Z,15.80
2018-10-03T10:46:25.376Z,15.70
2018-10-03T10:48:53.721Z,15.70
2018-10-03T10:51:22.037Z,15.80
2018-10-03T10:53:50.304Z,15.90
2018-10-03T10:56:18.581Z,16.10
2018-10-03T10:58:46.860Z,16.40
2018-10-03T11:01:15.116Z,16.60
2018-10-03T11:03:43.418Z,16.70
2018-10-03T11:06:11.758Z,16.90
2018-10-03T11:08:40.125Z,17.00
2018-10-03T11:11:08.528Z,17.20
2018-10-03T11:13:36.877Z,17.90
2018-10-03T11:16:05.168Z,18.30
2018-10-03T11:18:33.429Z,18.70
2018-10-03T11:21:01.718Z,19.20
2018-10-03T11:23:30.033Z,19.60
2018-10-03T11:25:58.490Z,20.20
2018-10-03T11:28:26.825Z,20.30
2018-10-03T11:30:55.089Z,20.00
2018-10-03T11:33:23.416Z,19.90
2018-10-03T11:35:51.674Z,19.80
2018-10-03T11:38:20.016Z,19.60
2018-10-03T11:40:48.248Z,19.70
2018-10-03T11:43:16.500Z,20.10
2018-10-03T11:45:44.763Z,20.70
2018-10-03T11:48:13.046Z,20.20
2018-10-03T11:50:41.381Z,20.30
2018-10-03T11:53:09.619Z,20.20
2018-10-03T11:55:37.896Z,20.50
2018-10-03T11:58:06.149Z,21.30
2018-10-03T12:00:34.456Z,22.20
2018-10-03T12:03:02.877Z,21.80
2018-10-03T12:05:31.134Z,21.70
2018-10-03T12:07:59.420Z,21.10
2018-10-03T12:10:27.692Z,20.90
2018-10-03T12:12:55.998Z,20.90
2018-10-03T12:15:24.277Z,20.90
2018-10-03T12:17:52.805Z,21.20
2018-10-03T12:20:21.061Z,21.30
2018-10-03T12:22:49.442Z,21.70
2018-10-03T12:25:17.744Z,21.80
2018-10-03T12:27:45.997Z,22.80
2018-10-03T12:30:14.278Z,23.70
2018-10-03T12:32:42.597Z,23.40
2018-10-03T12:35:10.907Z,22.90
2018-10-03T12:37:39.201Z,21.80
2018-10-03T12:40:07.688Z,22.00
2018-10-03T12:42:35.976Z,23.10
2018-10-03T12:45:04.352Z,24.00
2018-10-03T12:47:32.584Z,24.80
2018-10-03T12:50:00.933Z,24.20
2018-10-03T12:52:29.213Z,23.80
2018-10-03T12:54:57.468Z,23.80
2018-10-03T12:57:25.753Z,24.10
2018-10-03T12:59:54.041Z,24.50
2018-10-03T13:02:22.293Z,24.60
2018-10-03T13:04:50.661Z,24.60
2018-10-03T13:07:18.905Z,24.80
2018-10-03T13:09:47.161Z,24.60
2018-10-03T13:12:15.614Z,23.90
2018-10-03T13:14:43.893Z,24.10
2018-10-03T13:17:12.168Z,24.40
2018-10-03T13:19:40.520Z,24.70
2018-10-03T13:22:08.945Z,24.70
2018-10-03T13:24:37.241Z,24.40
2018-10-03T13:27:05.520Z,25.20
2018-10-03T13:29:33.808Z,24.80
2018-10-03T13:32:02.109Z,25.30
2018-10-03T13:34:30.497Z,25.20
2018-10-03T13:36:58.768Z,25.50
2018-10-03T13:39:27.064Z,25.60
2018-10-03T13:41:55.326Z,26.00
2018-10-03T13:44:23.605Z,27.10
2018-10-03T13:46:51.943Z,28.00
2018-10-03T13:49:20.361Z,28.20
2018-10-03T13:51:48.661Z,27.60
2018-10-03T13:54:16.921Z,27.40
2018-10-03T13:56:45.295Z,26.90
2018-10-03T13:59:13.669Z,25.40
2018-10-03T14:01:41.980Z,24.00
2018-10-03T14:04:10.392Z,22.70
2018-10-03T14:06:38.773Z,22.10
2018-10-03T14:09:08.842Z,21.40
2018-10-03T14:11:37.109Z,21.40
2018-10-03T14:14:05.539Z,21.40
2018-10-03T14:16:33.878Z,21.20
2018-10-03T14:19:02.153Z,21.20
2018-10-03T14:21:30.436Z,21.00
2018-10-03T14:23:58.892Z,21.00
2018-10-03T14:26:27.155Z,21.60
2018-10-03T14:28:55.480Z,22.10
2018-10-03T14:31:23.785Z,23.30
2018-10-03T14:33:58.409Z,24.20
2018-10-03T14:36:26.826Z,24.70
2018-10-03T14:38:55.368Z,24.90
2018-10-03T14:41:23.694Z,24.90
2018-10-03T14:43:52.121Z,25.10
2018-10-03T14:46:20.717Z,25.80
2018-10-03T14:48:48.982Z,25.70
2018-10-03T14:51:17.244Z,25.60
2018-10-03T14:53:45.872Z,24.90
2018-10-03T14:56:14.159Z,24.00
2018-10-03T14:58:42.595Z,23.90
2018-10-03T15:01:10.875Z,23.40
2018-10-03T15:03:39.242Z,23.20
2018-10-03T15:06:07.681Z,23.00
2018-10-03T15:08:36.041Z,22.90
2018-10-03T15:11:04.330Z,22.70
2018-10-03T15:13:32.613Z,23.20
2018-10-03T15:16:00.924Z,23.60
2018-10-03T15:18:29.378Z,24.00
2018-10-03T15:20:58.041Z,23.90
2018-10-03T15:23:26.470Z,24.00
2018-10-03T15:25:54.956Z,23.70
2018-10-03T15:28:23.267Z,23.60
2018-10-03T15:30:51.999Z,23.60
2018-10-03T15:33:20.441Z,23.50
2018-10-03T15:35:48.740Z,23.40
2018-10-03T15:38:17.765Z,23.90
2018-10-03T15:40:46.204Z,24.30
2018-10-03T15:43:14.715Z,24.50
2018-10-03T15:45:42.978Z,24.70
2018-10-03T15:48:11.475Z,24.60
2018-10-03T15:50:39.733Z,24.50
2018-10-03T15:53:08.164Z,24.20
2018-10-03T15:55:36.584Z,23.90
2018-10-03T15:58:04.898Z,23.80
2018-10-03T16:00:33.365Z,23.50
2018-10-03T16:03:01.677Z,23.40
2018-10-03T16:05:30.000Z,23.40
2018-10-03T16:07:58.323Z,22.80
2018-10-03T16:10:26.593Z,22.10
2018-10-03T16:12:54.860Z,22.00
2018-10-03T16:15:23.162Z,22.20
2018-10-03T16:17:51.916Z,22.50
2018-10-03T16:20:20.200Z,22.90
2018-10-03T16:22:48.561Z,23.20
2018-10-03T16:25:16.904Z,23.40
2018-10-03T16:27:45.284Z,23.50
2018-10-03T16:30:13.676Z,23.40
2018-10-03T16:32:42.976Z,23.20
2018-10-03T16:35:12.273Z,23.00
2018-10-03T16:37:40.556Z,22.50
2018-10-03T16:40:09.142Z,22.30
2018-10-03T16:42:37.412Z,22.00
2018-10-03T16:45:06.017Z,21.90
2018-10-03T16:47:34.249Z,21.70
2018-10-03T16:50:02.729Z,21.50
2018-10-03T16:52:30.938Z,21.30
2018-10-03T16:54:59.244Z,21.00
2018-10-03T16:57:27.730Z,20.80
2018-10-03T16:59:56.004Z,20.50
2018-10-03T17:02:24.256Z,20.30
2018-10-03T17:05:01.475Z,20.10
2018-10-03T17:07:29.778Z,19.90
2018-10-03T17:09:58.083Z,19.70
2018-10-03T17:12:26.419Z,19.50
2018-10-03T17:14:54.668Z,19.40
2018-10-03T17:17:22.960Z,19.30
2018-10-03T17:19:51.229Z,19.10
2018-10-03T17:22:19.496Z,19.00
2018-10-03T17:24:47.783Z,18.80
2018-10-03T17:27:16.068Z,18.70
2018-10-03T17:29:57.928Z,18.60
2018-10-03T17:32:41.241Z,18.50
2018-10-03T17:35:09.671Z,18.40
2018-10-03T17:37:37.935Z,18.30
2018-10-03T17:40:06.740Z,18.10
2018-10-03T17:42:35.112Z,18.00
2018-10-03T17:45:03.369Z,17.90
2018-10-03T17:47:31.672Z,17.70
2018-10-03T17:50:00.236Z,17.60
2018-10-03T17:52:28.547Z,17.60
2018-10-03T17:54:56.866Z,17.50
2018-10-03T17:57:25.343Z,17.40
2018-10-03T17:59:53.830Z,17.30
2018-10-03T18:02:22.129Z,17.20
2018-10-03T18:04:50.535Z,17.10
2018-10-03T18:07:18.826Z,17.00
2018-10-03T18:09:47.101Z,16.90
2018-10-03T18:12:15.521Z,16.90
2018-10-03T18:14:43.791Z,16.90
2018-10-03T18:17:12.085Z,16.80
2018-10-03T18:19:40.433Z,16.80
2018-10-03T18:22:08.714Z,16.80
2018-10-03T18:24:36.990Z,16.70
2018-10-03T18:27:05.330Z,16.60
2018-10-03T18:29:33.611Z,16.60
2018-10-03T18:32:01.929Z,16.60
2018-10-03T18:34:30.257Z,16.60
2018-10-03T18:36:58.590Z,16.50
2018-10-03T18:39:27.000Z,16.50
2018-10-03T18:41:55.346Z,16.50
2018-10-03T18:44:23.774Z,16.50
2018-10-03T18:46:52.182Z,16.50
2018-10-03T18:49:20.394Z,16.50
2018-10-03T18:51:48.749Z,16.60
2018-10-03T18:54:17.154Z,16.50
2018-10-03T18:56:45.432Z,16.50
2018-10-03T18:59:13.745Z,16.50
2018-10-03T19:01:42.079Z,16.50
2018-10-03T19:04:10.414Z,16.50
2018-10-03T19:06:38.737Z,16.50
2018-10-03T19:09:08.781Z,16.50
2018-10-03T19:11:37.734Z,16.40
2018-10-03T19:14:06.278Z,16.40
2018-10-03T19:16:34.576Z,16.30
2018-10-03T19:19:03.193Z,16.20
2018-10-03T19:21:31.494Z,16.10
2018-10-03T19:23:59.861Z,16.00
2018-10-03T19:26:28.240Z,15.90
2018-10-03T19:28:56.495Z,15.70
2018-10-03T19:31:24.790Z,15.70
2018-10-03T19:33:53.089Z,15.60
2018-10-03T19:36:21.393Z,15.50
2018-10-03T19:38:49.698Z,15.40
2018-10-03T19:41:17.990Z,15.40
2018-10-03T19:43:46.315Z,15.30
2018-10-03T19:46:14.633Z,15.20
2018-10-03T19:48:42.900Z,15.10
2018-10-03T19:54:01.800Z,14.80
2018-10-03T19:56:30.096Z,14.80
2018-10-03T19:58:58.462Z,14.70
2018-10-03T20:01:26.756Z,14.60
2018-10-03T20:03:55.090Z,14.50
2018-10-03T20:06:23.347Z,14.50
2018-10-03T20:08:51.657Z,14.40
2018-10-03T20:11:20.038Z,14.40
2018-10-03T20:13:48.391Z,14.30
2018-10-03T20:16:16.730Z,14.30
2018-10-03T20:18:45.025Z,14.20
2018-10-03T20:21:13.401Z,14.20
2018-10-03T20:23:41.652Z,14.10
2018-10-03T20:26:10.302Z,14.10
2018-10-03T20:28:38.553Z,14.00
2018-10-03T20:31:06.961Z,14.00
2018-10-03T20:33:35.276Z,13.90
2018-10-03T20:36:03.821Z,13.80
2018-10-03T20:38:32.098Z,13.80
2018-10-03T20:41:00.435Z,13.70
2018-10-03T20:43:29.085Z,13.70
2018-10-03T20:45:57.438Z,13.60
2018-10-03T20:48:25.835Z,13.50
2018-10-03T20:50:54.004Z,13.50
2018-10-03T20:53:22.309Z,13.40
2018-10-03T20:55:50.649Z,13.40
2018-10-03T20:58:18.958Z,13.30
2018-10-03T21:00:47.223Z,13.30
2018-10-03T21:03:15.500Z,13.30
2018-10-03T21:05:43.939Z,13.20
2018-10-03T21:08:12.282Z,13.20
2018-10-03T21:10:40.560Z,13.20
2018-10-03T21:13:08.853Z,13.10
2018-10-03T21:15:37.176Z,13.10
2018-10-03T21:18:05.538Z,13.00
2018-10-03T21:20:33.853Z,13.10
2018-10-03T21:23:02.120Z,13.10
2018-10-03T21:25:30.429Z,13.00
2018-10-03T21:27:58.708Z,13.00
2018-10-03T21:30:27.044Z,13.00
2018-10-03T21:32:55.321Z,13.00
2018-10-03T21:35:23.625Z,12.90
2018-10-03T21:37:51.909Z,12.80
2018-10-03T21:40:20.191Z,12.80
2018-10-03T21:42:48.517Z,12.80
2018-10-03T21:45:16.820Z,12.70
2018-10-03T21:47:45.124Z,12.60
2018-10-03T21:50:13.412Z,12.50
2018-10-03T21:52:41.765Z,12.60
2018-10-03T21:55:10.245Z,12.60
2018-10-03T21:57:38.501Z,12.60
2018-10-03T22:00:07.834Z,12.60
2018-10-03T22:02:36.286Z,12.50
2018-10-03T22:05:06.541Z,12.40
2018-10-03T22:07:34.814Z,12.40
2018-10-03T22:10:03.194Z,12.40
2018-10-03T22:12:32.604Z,12.40
2018-10-03T22:15:00.880Z,12.40
2018-10-03T22:17:29.173Z,12.40
2018-10-03T22:19:57.594Z,12.40
2018-10-03T22:22:25.873Z,12.30
2018-10-03T22:24:54.137Z,12.30
2018-10-03T22:27:22.601Z,12.30
2018-10-03T22:29:50.895Z,12.30
2018-10-03T22:32:19.176Z,12.40
2018-10-03T22:34:47.538Z,12.50
2018-10-03T22:37:15.822Z,12.50
2018-10-03T22:39:44.193Z,12.60
2018-10-03T22:42:12.463Z,12.60
2018-10-03T22:44:40.760Z,12.60
2018-10-03T22:47:09.072Z,12.50
2018-10-03T22:49:37.328Z,12.50
2018-10-03T22:52:05.701Z,12.40
2018-10-03T22:54:34.029Z,12.40
2018-10-03T22:57:02.277Z,12.40
2018-10-03T22:59:30.536Z,12.40
2018-10-03T23:01:58.919Z,12.20
2018-10-03T23:04:28.348Z,12.10
2018-10-03T23:06:56.776Z,12.20
2018-10-03T23:09:25.112Z,12.10
2018-10-03T23:11:53.468Z,12.10
2018-10-03T23:14:21.716Z,12.20
2018-10-03T23:16:50.038Z,12.20
2018-10-03T23:19:18.284Z,12.30
2018-10-03T23:21:46.567Z,12.30
2018-10-03T23:24:14.860Z,12.40
2018-10-03T23:26:43.136Z,12.40
2018-10-03T23:29:11.440Z,12.40
2018-10-03T23:31:39.708Z,12.50
2018-10-03T23:34:08.297Z,12.50
2018-10-03T23:36:36.580Z,12.50
2018-10-03T23:39:07.577Z,12.50
2018-10-03T23:41:35.832Z,12.40
2018-10-03T23:44:04.077Z,12.50
2018-10-03T23:46:32.387Z,12.60
2018-10-03T23:49:00.669Z,12.50
2018-10-03T23:51:28.948Z,12.50
2018-10-03T23:53:57.193Z,12.50
2018-10-03T23:56:25.481Z,12.50
2018-10-03T23:58:53.744Z,12.50
